createdAt,value
2018-06-03T00:01:49.302Z,34.97
2018-06-03T00:04:16.829Z,34.77
2018-06-03T00:06:44.377Z,34.37
2018-06-03T00:09:11.926Z,32.03
2018-06-03T00:11:39.510Z,30.53
2018-06-03T00:14:07.902Z,38.33
2018-06-03T00:16:35.446Z,32.00
2018-06-03T00:19:02.994Z,30.30
2018-06-03T00:21:42.417Z,30.40
2018-06-03T00:24:10.034Z,35.33
2018-06-03T00:26:37.594Z,32.83
2018-06-03T00:29:05.190Z,34.13
2018-06-03T00:31:32.757Z,32.63
2018-06-03T00:34:00.372Z,34.10
2018-06-03T00:36:45.461Z,34.70
2018-06-03T00:39:13.006Z,33.30
2018-06-03T00:41:40.546Z,32.87
2018-06-03T00:44:08.095Z,33.33
2018-06-03T00:46:35.650Z,32.67
2018-06-03T00:49:03.210Z,32.05
2018-06-03T00:51:30.737Z,32.90
2018-06-03T00:53:58.269Z,32.73
2018-06-03T00:56:43.381Z,30.60
2018-06-03T00:59:10.936Z,32.70
2018-06-03T01:01:38.509Z,30.40
2018-06-03T01:04:06.063Z,31.93
2018-06-03T01:06:33.613Z,31.93
2018-06-03T01:09:01.158Z,30.92
2018-06-03T01:11:28.715Z,28.83
2018-06-03T01:13:56.303Z,30.15
2018-06-03T01:16:23.846Z,31.37
2018-06-03T01:18:51.398Z,30.62
2018-06-03T01:21:19.002Z,29.60
2018-06-03T01:23:46.572Z,34.10
2018-06-03T01:26:14.121Z,33.85
2018-06-03T01:28:41.691Z,33.87
2018-06-03T01:31:09.247Z,31.60
2018-06-03T01:33:36.802Z,35.60
2018-06-03T01:36:04.381Z,33.40
2018-06-03T01:38:31.937Z,34.37
2018-06-03T01:40:59.498Z,32.53
2018-06-03T01:43:27.076Z,34.40
2018-06-03T01:45:56.731Z,35.40
2018-06-03T01:48:24.299Z,35.00
2018-06-03T01:50:51.862Z,34.60
2018-06-03T01:53:19.414Z,39.17
2018-06-03T01:55:46.962Z,41.73
2018-06-03T01:58:14.513Z,39.07
2018-06-03T02:00:42.061Z,40.90
2018-06-03T02:03:09.607Z,39.00
2018-06-03T02:05:37.153Z,39.60
2018-06-03T02:08:04.717Z,39.43
2018-06-03T02:10:32.245Z,46.47
2018-06-03T02:12:59.792Z,38.97
2018-06-03T02:15:27.334Z,38.87
2018-06-03T02:17:54.870Z,40.87
2018-06-03T02:20:22.401Z,43.57
2018-06-03T02:22:49.954Z,42.63
2018-06-03T02:25:17.537Z,42.80
2018-06-03T02:27:45.088Z,42.90
2018-06-03T02:30:12.647Z,42.47
2018-06-03T02:32:40.197Z,42.67
2018-06-03T02:35:07.742Z,43.57
2018-06-03T02:37:35.282Z,39.80
2018-06-03T02:40:02.873Z,39.30
2018-06-03T02:42:30.432Z,40.53
2018-06-03T02:44:57.973Z,41.90
2018-06-03T02:47:25.535Z,43.40
2018-06-03T02:49:53.097Z,40.73
2018-06-03T02:52:20.637Z,40.77
2018-06-03T02:54:48.209Z,42.43
2018-06-03T02:57:15.745Z,42.33
2018-06-03T02:59:43.281Z,43.80
2018-06-03T03:02:10.809Z,43.70
2018-06-03T03:04:38.362Z,42.90
2018-06-03T03:07:05.914Z,42.87
2018-06-03T03:09:33.469Z,42.13
2018-06-03T03:12:01.035Z,42.50
2018-06-03T03:14:28.610Z,42.30
2018-06-03T03:16:56.147Z,42.20
2018-06-03T03:19:23.698Z,41.40
2018-06-03T03:21:51.221Z,40.93
2018-06-03T03:24:18.766Z,39.87
2018-06-03T03:26:46.310Z,39.63
2018-06-03T03:29:13.870Z,42.40
2018-06-03T03:31:41.401Z,39.53
2018-06-03T03:34:11.031Z,40.67
2018-06-03T03:36:38.579Z,40.93
2018-06-03T03:39:06.366Z,38.93
2018-06-03T03:41:33.916Z,36.30
2018-06-03T03:44:01.474Z,37.87
2018-06-03T03:46:29.026Z,37.03
2018-06-03T03:48:56.570Z,38.28
2018-06-03T03:51:24.134Z,39.47
2018-06-03T03:53:51.814Z,40.45
2018-06-03T03:56:19.378Z,41.05
2018-06-03T03:58:46.921Z,39.05
2018-06-03T04:01:14.473Z,38.83
2018-06-03T04:03:42.010Z,39.38
2018-06-03T04:06:09.588Z,37.15
2018-06-03T04:08:37.125Z,38.15
2018-06-03T04:11:04.874Z,37.25
2018-06-03T04:13:32.426Z,36.70
2018-06-03T04:15:59.994Z,37.30
2018-06-03T04:18:27.554Z,35.90
2018-06-03T04:20:55.093Z,36.83
2018-06-03T04:23:22.629Z,36.68
2018-06-03T04:25:50.193Z,34.63
2018-06-03T04:28:17.747Z,36.25
2018-06-03T04:30:45.286Z,34.25
2018-06-03T04:33:12.837Z,33.78
2018-06-03T04:35:40.394Z,34.18
2018-06-03T04:38:07.987Z,33.35
2018-06-03T04:40:35.541Z,34.23
2018-06-03T04:43:03.094Z,33.92
2018-06-03T04:45:30.654Z,34.53
2018-06-03T04:47:58.203Z,32.70
2018-06-03T04:50:25.908Z,33.33
2018-06-03T04:52:53.467Z,33.78
2018-06-03T04:55:21.014Z,33.95
2018-06-03T04:57:48.580Z,34.35
2018-06-03T05:00:16.122Z,34.33
2018-06-03T05:02:43.662Z,33.42
2018-06-03T05:05:11.223Z,32.42
2018-06-03T05:07:38.797Z,32.50
2018-06-03T05:10:06.401Z,32.05
2018-06-03T05:12:33.961Z,31.68
2018-06-03T05:15:01.536Z,33.02
2018-06-03T05:17:29.114Z,30.72
2018-06-03T05:19:56.678Z,31.33
2018-06-03T05:22:24.246Z,33.30
2018-06-03T05:24:51.870Z,31.37
2018-06-03T05:27:19.426Z,31.40
2018-06-03T05:29:46.993Z,31.65
2018-06-03T05:32:14.547Z,30.88
2018-06-03T05:34:42.077Z,29.50
2018-06-03T05:37:09.651Z,30.62
2018-06-03T05:39:37.186Z,31.05
2018-06-03T05:42:04.805Z,32.00
2018-06-03T05:44:32.342Z,31.97
2018-06-03T05:46:59.898Z,31.57
2018-06-03T05:49:27.448Z,32.83
2018-06-03T05:51:55.007Z,31.33
2018-06-03T05:54:22.568Z,31.27
2018-06-03T05:56:50.137Z,31.50
2018-06-03T05:59:17.706Z,30.30
2018-06-03T06:01:45.270Z,31.07
2018-06-03T06:04:12.830Z,31.50
2018-06-03T06:06:40.402Z,31.75
2018-06-03T06:09:07.967Z,30.52
2018-06-03T06:11:35.517Z,31.35
2018-06-03T06:14:03.074Z,29.87
2018-06-03T06:16:30.618Z,29.92
2018-06-03T06:18:58.777Z,28.62
2018-06-03T06:21:26.313Z,29.67
2018-06-03T06:23:53.945Z,29.32
2018-06-03T06:26:21.510Z,30.77
2018-06-03T06:28:49.053Z,29.75
2018-06-03T06:31:16.619Z,29.90
2018-06-03T06:33:44.189Z,28.83
2018-06-03T06:36:11.729Z,28.23
2018-06-03T06:38:39.262Z,31.00
2018-06-03T06:41:06.818Z,29.67
2018-06-03T06:43:34.352Z,28.42
2018-06-03T06:46:01.908Z,27.65
2018-06-03T06:48:29.466Z,26.45
2018-06-03T06:50:57.016Z,27.27
2018-06-03T06:53:24.593Z,28.15
2018-06-03T06:55:52.165Z,28.17
2018-06-03T06:58:19.717Z,28.42
2018-06-03T07:00:47.286Z,27.95
2018-06-03T07:03:14.825Z,25.70
2018-06-03T07:05:42.449Z,27.62
2018-06-03T07:08:09.995Z,26.33
2018-06-03T07:10:37.547Z,26.85
2018-06-03T07:13:05.258Z,26.15
2018-06-03T07:15:32.786Z,26.65
2018-06-03T07:18:00.318Z,25.80
2018-06-03T07:20:27.870Z,26.17
2018-06-03T07:22:55.418Z,27.02
2018-06-03T07:25:23.002Z,25.65
2018-06-03T07:27:50.538Z,25.72
2018-06-03T07:30:18.080Z,26.62
2018-06-03T07:32:45.617Z,25.48
2018-06-03T07:35:13.178Z,25.50
2018-06-03T07:37:40.718Z,22.70
2018-06-03T07:40:08.271Z,24.27
2018-06-03T07:42:35.810Z,23.00
2018-06-03T07:45:03.447Z,22.80
2018-06-03T07:47:30.993Z,23.32
2018-06-03T07:49:58.562Z,23.65
2018-06-03T07:52:26.118Z,22.73
2018-06-03T07:54:53.661Z,22.52
2018-06-03T07:57:21.211Z,22.20
2018-06-03T07:59:48.737Z,21.42
2018-06-03T08:02:16.286Z,21.25
2018-06-03T08:04:43.842Z,22.13
2018-06-03T08:07:11.389Z,20.40
2018-06-03T08:09:38.939Z,21.73
2018-06-03T08:12:06.478Z,20.52
2018-06-03T08:14:34.038Z,20.48
2018-06-03T08:17:01.621Z,19.87
2018-06-03T08:19:29.169Z,21.42
2018-06-03T08:21:56.717Z,20.92
2018-06-03T08:24:24.290Z,21.15
2018-06-03T08:26:51.846Z,19.92
2018-06-03T08:29:19.386Z,22.73
2018-06-03T08:31:46.935Z,21.80
2018-06-03T08:34:14.487Z,20.95
2018-06-03T08:36:42.051Z,22.27
2018-06-03T08:39:09.677Z,22.73
2018-06-03T08:41:37.183Z,20.95
2018-06-03T08:44:04.806Z,22.22
2018-06-03T08:46:32.350Z,21.00
2018-06-03T08:48:59.894Z,21.73
2018-06-03T08:51:27.434Z,19.27
2018-06-03T08:53:54.975Z,23.25
2018-06-03T08:56:22.574Z,21.90
2018-06-03T08:58:50.126Z,21.87
2018-06-03T09:01:17.665Z,24.07
2018-06-03T09:03:45.206Z,22.77
2018-06-03T09:06:12.778Z,22.20
2018-06-03T09:08:40.339Z,22.20
2018-06-03T09:14:30.787Z,20.60
2018-06-03T09:17:11.282Z,20.50
2018-06-03T09:22:54.954Z,20.75
2018-06-03T09:25:22.562Z,19.48
2018-06-03T09:27:50.110Z,19.65
2018-06-03T09:30:17.665Z,19.20
2018-06-03T09:32:45.225Z,19.15
2018-06-03T09:35:12.767Z,19.82
2018-06-03T09:37:40.297Z,19.32
2018-06-03T09:40:07.857Z,21.10
2018-06-03T09:42:35.421Z,20.48
2018-06-03T09:45:02.986Z,18.75
2018-06-03T09:47:30.537Z,19.92
2018-06-03T09:49:58.057Z,19.32
2018-06-03T09:52:25.601Z,18.55
2018-06-03T09:54:53.130Z,18.98
2018-06-03T09:57:20.678Z,18.85
2018-06-03T09:59:48.218Z,17.92
2018-06-03T10:02:15.751Z,17.50
2018-06-03T10:04:43.285Z,19.27
2018-06-03T10:07:10.852Z,18.12
2018-06-03T10:09:38.409Z,18.10
2018-06-03T10:15:11.106Z,16.85
2018-06-03T10:17:38.666Z,15.08
2018-06-03T10:20:06.210Z,15.05
2018-06-03T10:22:33.749Z,16.02
2018-06-03T10:25:01.297Z,15.55
2018-06-03T10:27:28.853Z,15.65
2018-06-03T10:29:56.414Z,15.28
2018-06-03T10:32:25.021Z,15.58
2018-06-03T10:34:52.577Z,15.53
2018-06-03T10:37:20.134Z,14.20
2018-06-03T10:39:47.682Z,13.90
2018-06-03T10:42:15.210Z,13.72
2018-06-03T10:44:42.761Z,13.58
2018-06-03T10:47:10.346Z,12.58
2018-06-03T10:49:37.910Z,13.88
2018-06-03T10:52:05.462Z,13.08
2018-06-03T10:54:33.054Z,13.15
2018-06-03T10:57:00.554Z,11.83
2018-06-03T10:59:28.115Z,10.13
2018-06-03T11:01:55.670Z,9.60
2018-06-03T11:04:23.214Z,7.72
2018-06-03T11:06:50.755Z,8.13
2018-06-03T11:09:18.303Z,7.90
2018-06-03T11:11:45.832Z,7.90
2018-06-03T11:14:13.378Z,7.42
2018-06-03T11:16:40.927Z,7.90
2018-06-03T11:19:08.474Z,8.70
2018-06-03T11:21:36.014Z,8.30
2018-06-03T11:24:03.645Z,8.15
2018-06-03T11:26:31.208Z,8.45
2018-06-03T11:28:58.758Z,9.25
2018-06-03T11:31:26.285Z,9.13
2018-06-03T11:33:53.826Z,8.08
2018-06-03T11:36:21.378Z,7.35
2018-06-03T11:38:48.918Z,7.83
2018-06-03T11:41:16.826Z,7.25
2018-06-03T11:43:44.382Z,7.17
2018-06-03T11:46:11.942Z,6.42
2018-06-03T11:48:39.511Z,7.00
2018-06-03T11:51:07.067Z,7.67
2018-06-03T11:53:34.648Z,7.40
2018-06-03T11:56:02.178Z,7.50
2018-06-03T11:58:52.833Z,7.37
2018-06-03T12:01:20.401Z,7.25
2018-06-03T12:03:47.952Z,6.12
2018-06-03T12:06:15.511Z,7.70
2018-06-03T12:08:43.087Z,7.12
2018-06-03T12:11:10.632Z,6.95
2018-06-03T12:13:38.207Z,7.25
2018-06-03T12:16:05.763Z,8.20
2018-06-03T12:18:33.316Z,7.45
2018-06-03T12:21:00.890Z,7.15
2018-06-03T12:23:28.422Z,7.90
2018-06-03T12:25:55.979Z,7.45
2018-06-03T12:28:23.533Z,8.63
2018-06-03T12:30:51.099Z,7.55
2018-06-03T12:33:18.650Z,8.98
2018-06-03T12:35:46.228Z,8.73
2018-06-03T12:38:13.770Z,7.70
2018-06-03T12:40:41.328Z,7.65
2018-06-03T12:43:08.874Z,8.80
2018-06-03T12:45:36.453Z,7.58
2018-06-03T12:48:04.290Z,8.05
2018-06-03T12:50:31.829Z,7.70
2018-06-03T12:52:59.366Z,7.62
2018-06-03T12:55:26.906Z,7.97
2018-06-03T12:57:54.446Z,7.25
2018-06-03T13:00:21.989Z,6.97
2018-06-03T13:02:49.529Z,7.08
2018-06-03T13:05:17.066Z,7.90
2018-06-03T13:07:44.627Z,7.28
2018-06-03T13:10:12.177Z,8.78
2018-06-03T13:12:40.646Z,8.13
2018-06-03T13:15:08.198Z,8.80
2018-06-03T13:17:35.753Z,7.50
2018-06-03T13:20:03.812Z,7.50
2018-06-03T13:22:31.361Z,7.50
2018-06-03T13:24:58.906Z,8.78
2018-06-03T13:27:26.451Z,9.03
2018-06-03T13:29:53.998Z,9.15
2018-06-03T13:32:21.558Z,8.00
2018-06-03T13:34:49.106Z,7.28
2018-06-03T13:37:16.660Z,8.58
2018-06-03T13:39:44.198Z,7.55
2018-06-03T13:42:11.753Z,7.00
2018-06-03T13:44:39.289Z,7.90
2018-06-03T13:47:06.867Z,7.40
2018-06-03T13:49:34.426Z,8.40
2018-06-03T13:52:01.987Z,7.20
2018-06-03T13:54:29.529Z,8.53
2018-06-03T13:56:57.154Z,8.05
2018-06-03T13:59:24.693Z,8.40
2018-06-03T14:05:19.626Z,7.53
2018-06-03T14:07:47.195Z,7.33
2018-06-03T14:13:14.429Z,9.40
2018-06-03T14:21:46.005Z,7.37
2018-06-03T14:24:13.554Z,8.23
2018-06-03T14:26:41.097Z,7.30
2018-06-03T14:29:08.638Z,6.97
2018-06-03T14:31:36.165Z,7.15
2018-06-03T14:34:03.750Z,7.22
2018-06-03T14:36:31.303Z,7.80
2018-06-03T14:38:58.846Z,7.87
2018-06-03T14:41:26.377Z,7.35
2018-06-03T14:43:53.930Z,6.75
2018-06-03T14:46:21.478Z,7.33
2018-06-03T14:48:49.047Z,7.28
2018-06-03T14:51:16.597Z,6.80
2018-06-03T14:53:44.129Z,6.17
2018-06-03T14:56:11.667Z,6.05
2018-06-03T14:58:39.153Z,5.20
2018-06-03T15:01:06.714Z,6.53
2018-06-03T15:03:34.266Z,6.47
2018-06-03T15:06:01.823Z,6.58
2018-06-03T15:08:29.388Z,6.75
2018-06-03T15:10:56.926Z,5.87
2018-06-03T15:13:24.477Z,7.00
2018-06-03T15:15:52.034Z,6.45
2018-06-03T15:18:19.605Z,6.80
2018-06-03T15:20:47.158Z,7.92
2018-06-03T15:23:45.039Z,6.65
2018-06-03T15:26:12.614Z,8.18
2018-06-03T15:28:40.166Z,6.53
2018-06-03T15:31:07.702Z,6.75
2018-06-03T15:33:35.250Z,7.08
2018-06-03T15:36:02.814Z,7.42
2018-06-03T15:38:30.359Z,7.85
2018-06-03T15:40:57.921Z,7.00
2018-06-03T15:43:25.462Z,7.92
2018-06-03T15:45:53.017Z,6.55
2018-06-03T15:48:20.569Z,7.33
2018-06-03T15:50:48.129Z,9.18
2018-06-03T15:53:15.677Z,8.50
2018-06-03T15:55:43.241Z,8.55
2018-06-03T15:58:10.783Z,9.00
2018-06-03T16:00:38.356Z,8.00
2018-06-03T16:03:05.931Z,7.53
2018-06-03T16:05:33.484Z,8.08
2018-06-03T16:08:01.103Z,7.85
2018-06-03T16:10:28.670Z,9.70
2018-06-03T16:12:56.242Z,8.15
2018-06-03T16:15:23.818Z,8.53
2018-06-03T16:17:51.375Z,7.97
2018-06-03T16:20:18.952Z,8.73
2018-06-03T16:22:46.499Z,8.13
2018-06-03T16:25:14.042Z,7.85
2018-06-03T16:27:41.641Z,7.40
2018-06-03T16:30:09.150Z,8.63
2018-06-03T16:32:36.681Z,8.05
2018-06-03T16:35:04.361Z,8.00
2018-06-03T16:37:31.980Z,8.05
2018-06-03T16:39:59.555Z,8.68
2018-06-03T16:42:27.114Z,7.35
2018-06-03T16:44:54.673Z,8.65
2018-06-03T16:47:22.222Z,8.60
2018-06-03T16:49:49.772Z,7.95
2018-06-03T16:52:17.345Z,8.63
2018-06-03T16:54:44.878Z,7.47
2018-06-03T16:57:12.430Z,8.45
2018-06-03T16:59:40.046Z,8.50
2018-06-03T17:02:07.593Z,8.25
2018-06-03T17:04:35.159Z,8.95
2018-06-03T17:07:02.770Z,8.83
2018-06-03T17:09:30.354Z,8.83
2018-06-03T17:11:57.914Z,8.83
2018-06-03T17:14:25.476Z,8.43
2018-06-03T17:16:53.038Z,8.28
2018-06-03T17:19:20.590Z,8.65
2018-06-03T17:21:48.150Z,8.98
2018-06-03T17:24:15.701Z,8.68
2018-06-03T17:26:43.258Z,8.18
2018-06-03T17:29:10.815Z,8.78
2018-06-03T17:31:38.403Z,8.43
2018-06-03T17:34:05.964Z,8.68
2018-06-03T17:36:33.519Z,8.00
2018-06-03T17:39:01.065Z,8.35
2018-06-03T17:41:28.634Z,8.25
2018-06-03T17:43:56.170Z,7.65
2018-06-03T17:46:23.738Z,8.23
2018-06-03T17:48:51.271Z,7.80
2018-06-03T17:51:18.810Z,8.43
2018-06-03T17:53:46.366Z,7.30
2018-06-03T17:56:23.862Z,7.28
2018-06-03T17:58:51.556Z,7.10
2018-06-03T18:01:24.934Z,7.55
2018-06-03T18:03:55.989Z,8.03
2018-06-03T18:06:26.840Z,7.87
2018-06-03T18:08:54.386Z,7.85
2018-06-03T18:11:26.150Z,7.60
2018-06-03T18:13:53.710Z,7.33
2018-06-03T18:16:21.259Z,7.95
2018-06-03T18:18:48.822Z,7.50
2018-06-03T18:21:18.419Z,7.65
2018-06-03T18:23:46.019Z,7.80
2018-06-03T18:26:13.590Z,7.30
2018-06-03T18:28:41.162Z,7.33
2018-06-03T18:31:08.723Z,7.92
2018-06-03T18:33:36.291Z,6.87
2018-06-03T18:36:03.873Z,6.85
2018-06-03T18:38:31.425Z,7.75
2018-06-03T18:40:59.003Z,6.87
2018-06-03T18:43:29.974Z,6.97
2018-06-03T18:45:57.502Z,7.42
2018-06-03T18:48:25.062Z,7.12
2018-06-03T18:50:52.614Z,7.53
2018-06-03T18:53:22.239Z,7.42
2018-06-03T18:55:49.782Z,7.45
2018-06-03T18:58:17.337Z,7.50
2018-06-03T19:00:48.210Z,7.53
2018-06-03T19:03:15.786Z,7.72
2018-06-03T19:05:43.350Z,7.62
2018-06-03T19:11:21.441Z,7.97
2018-06-03T19:13:49.052Z,7.87
2018-06-03T19:16:33.556Z,7.65
2018-06-03T19:19:01.115Z,7.65
2018-06-03T19:21:28.667Z,7.90
2018-06-03T19:23:56.286Z,7.87
2018-06-03T19:26:25.857Z,7.97
2018-06-03T19:28:53.414Z,8.40
2018-06-03T19:31:20.961Z,8.28
2018-06-03T19:33:48.526Z,8.80
2018-06-03T19:36:16.074Z,8.40
2018-06-03T19:38:43.650Z,8.28
2018-06-03T19:41:11.198Z,8.98
2018-06-03T19:43:38.761Z,8.50
2018-06-03T19:46:06.347Z,9.30
2018-06-03T19:48:33.886Z,8.95
2018-06-03T19:51:01.447Z,8.88
2018-06-03T19:53:28.995Z,9.05
2018-06-03T19:55:56.556Z,9.23
2018-06-03T19:58:24.178Z,9.28
2018-06-03T20:00:52.092Z,9.33
2018-06-03T20:03:19.632Z,9.68
2018-06-03T20:05:47.193Z,8.60
2018-06-03T20:08:22.059Z,9.68
2018-06-03T20:11:16.373Z,8.95
2018-06-03T20:13:44.930Z,9.98
2018-06-03T20:16:12.491Z,10.58
2018-06-03T20:21:45.484Z,9.93
2018-06-03T20:24:13.059Z,10.38
2018-06-03T20:26:40.659Z,10.50
2018-06-03T20:29:08.200Z,10.40
2018-06-03T20:31:35.744Z,10.32
2018-06-03T20:34:03.297Z,10.53
2018-06-03T20:36:30.841Z,10.48
2018-06-03T20:38:58.386Z,10.03
2018-06-03T20:41:25.941Z,11.60
2018-06-03T20:43:53.485Z,10.50
2018-06-03T20:46:44.051Z,10.93
2018-06-03T20:49:11.603Z,10.45
2018-06-03T20:51:56.850Z,10.85
2018-06-03T20:54:24.397Z,10.60
2018-06-03T20:56:52.022Z,10.98
2018-06-03T20:59:19.582Z,11.00
2018-06-03T21:02:14.902Z,11.78
2018-06-03T21:04:42.493Z,11.40
2018-06-03T21:07:10.050Z,11.27
2018-06-03T21:09:37.723Z,10.90
2018-06-03T21:12:05.662Z,10.48
2018-06-03T21:14:33.218Z,11.27
2018-06-03T21:17:00.782Z,11.88
2018-06-03T21:19:28.333Z,11.95
2018-06-03T21:21:55.937Z,11.68
2018-06-03T21:24:23.499Z,12.53
2018-06-03T21:26:51.054Z,12.07
2018-06-03T21:29:18.594Z,12.13
2018-06-03T21:31:46.147Z,12.77
2018-06-03T21:34:13.678Z,12.90
2018-06-03T21:36:41.227Z,13.40
2018-06-03T21:39:08.773Z,13.53
2018-06-03T21:41:36.317Z,13.93
2018-06-03T21:44:03.878Z,13.20
2018-06-03T21:46:31.431Z,15.03
2018-06-03T21:48:58.971Z,14.50
2018-06-03T21:51:26.557Z,14.37
2018-06-03T21:53:54.106Z,14.77
2018-06-03T21:56:21.651Z,14.60
2018-06-03T21:58:49.221Z,15.07
2018-06-03T22:01:16.770Z,16.27
2018-06-03T22:03:44.323Z,15.97
2018-06-03T22:06:29.001Z,16.17
2018-06-03T22:08:56.565Z,15.93
2018-06-03T22:11:24.105Z,16.67
2018-06-03T22:13:51.663Z,15.00
2018-06-03T22:16:19.201Z,15.37
2018-06-03T22:18:46.762Z,15.73
2018-06-03T22:21:14.349Z,16.13
2018-06-03T22:23:41.910Z,18.73
2018-06-03T22:26:09.469Z,20.17
2018-06-03T22:28:37.025Z,21.40
2018-06-03T22:31:04.602Z,21.20
2018-06-03T22:33:32.159Z,21.27
2018-06-03T22:35:59.701Z,20.33
2018-06-03T22:38:27.258Z,18.67
2018-06-03T22:40:54.818Z,19.30
2018-06-03T22:43:22.370Z,20.77
2018-06-03T22:45:49.926Z,19.57
2018-06-03T22:48:17.478Z,20.57
2018-06-03T22:50:45.029Z,20.07
2018-06-03T22:53:12.575Z,20.10
2018-06-03T22:55:40.130Z,21.70
2018-06-03T22:58:07.694Z,20.33
2018-06-03T23:00:35.386Z,23.23
2018-06-03T23:03:08.730Z,24.90
2018-06-03T23:05:36.305Z,24.37
2018-06-03T23:08:03.875Z,23.93
2018-06-03T23:10:31.421Z,24.03
2018-06-03T23:12:58.977Z,25.07
2018-06-03T23:15:27.336Z,26.30
2018-06-03T23:17:54.895Z,26.30
2018-06-03T23:20:22.433Z,25.00
2018-06-03T23:22:49.982Z,25.57
2018-06-03T23:25:17.543Z,25.50
2018-06-03T23:27:45.090Z,23.97
2018-06-03T23:30:12.662Z,25.27
2018-06-03T23:32:40.261Z,26.60
2018-06-03T23:35:07.814Z,29.00
2018-06-03T23:37:35.362Z,32.57
2018-06-03T23:40:02.959Z,31.67
2018-06-03T23:42:30.505Z,29.93
2018-06-03T23:44:58.065Z,27.77
2018-06-03T23:47:25.645Z,26.97
2018-06-03T23:49:53.209Z,25.70
2018-06-03T23:52:20.762Z,28.03
2018-06-03T23:54:48.318Z,26.23
2018-06-03T23:57:15.851Z,26.73
2018-06-03T23:59:43.394Z,26.87
